Time;durP1;ratioP1;P1;durP2;ratioP2;P2;SDS_P1;SDS_P2;PMS_P1;PMS_P2;Temp;Humidity;BMP_temperature;BMP_pressure;BME280_temperature;BME280_humidity;BME280_pressure;Samples;Min_cycle;Max_cycle;Signal;HPM_P1;HPM_P2
2022/09/01 00:00:50;;;;;;;1.70;0.65;;;;;;;13.82;72.01;101541.81;2062463;28;20046;-68
2022/09/01 00:01:55;;;;;;;0.90;0.60;;;;;;;13.81;72.12;101546.41;2053980;28;20050;-68
2022/09/01 00:02:58;;;;;;;2.22;0.70;;;;;;;13.79;72.19;101543.16;2046470;28;20047;-68
2022/09/01 00:04:05;;;;;;;1.92;0.85;;;;;;;13.83;72.06;101544.22;2054492;28;20046;-68
2022/09/01 00:05:11;;;;;;;2.38;0.60;;;;;;;13.82;72.28;101547.22;2071091;28;20037;-69
2022/09/01 00:06:21;;;;;;;2.45;0.93;;;;;;;13.82;72.05;101545.31;2070055;28;20366;-68
2022/09/01 00:07:23;;;;;;;;;;;;;;;13.86;71.75;101551.78;2065572;28;20053;-68
2022/09/01 00:08:27;;;;;;;1.67;0.60;;;;;;;13.88;72.16;101546.13;2062701;28;19918;-67
2022/09/01 00:09:32;;;;;;;1.17;0.50;;;;;;;13.92;71.49;101563.41;2070991;28;20029;-69
2022/09/01 00:10:41;;;;;;;3.20;0.65;;;;;;;13.85;71.83;101560.19;2077423;28;20045;-69
2022/09/01 00:11:45;;;;;;;0.93;0.50;;;;;;;13.79;71.82;101569.41;2054437;28;20038;-70
2022/09/01 00:12:50;;;;;;;2.50;0.60;;;;;;;13.80;72.26;101579.13;2062935;28;20042;-70
2022/09/01 00:14:00;;;;;;;1.02;0.50;;;;;;;13.85;73.17;101573.72;2062315;28;20046;-69
2022/09/01 00:15:05;;;;;;;2.00;0.73;;;;;;;13.86;73.91;101572.59;2070688;28;20045;-69
2022/09/01 00:16:12;;;;;;;1.25;0.65;;;;;;;13.87;75.00;101579.63;2069788;28;20501;-69
2022/09/01 00:17:16;;;;;;;1.20;0.60;;;;;;;13.87;75.64;101582.31;2054792;28;20090;-70
2022/09/01 00:18:19;;;;;;;2.30;0.80;;;;;;;13.82;77.20;101574.25;2055942;28;20058;-70
2022/09/01 00:19:22;;;;;;;1.30;0.70;;;;;;;13.88;77.83;101570.44;2048237;28;20423;-70
2022/09/01 00:20:27;;;;;;;2.83;0.90;;;;;;;13.82;78.67;101579.66;2065192;28;20069;-71
2022/09/01 00:21:32;;;;;;;3.58;0.82;;;;;;;13.70;79.35;101574.56;2063805;28;20432;-70
2022/09/01 00:22:37;;;;;;;3.85;1.10;;;;;;;13.60;80.29;101571.88;2063686;28;20057;-70
2022/09/01 00:23:39;;;;;;;2.17;0.90;;;;;;;13.59;80.52;101579.19;2064105;28;20042;-71
2022/09/01 00:24:41;;;;;;;2.00;0.70;;;;;;;13.51;80.81;101579.72;2064905;28;20084;-71
2022/09/01 00:25:44;;;;;;;3.33;1.08;;;;;;;13.42;81.68;101575.97;2073107;28;20038;-71
2022/09/01 00:26:48;;;;;;;2.28;0.85;;;;;;;13.48;82.65;101566.75;2073633;28;20437;-70
2022/09/01 00:28:03;;;;;;;1.58;0.70;;;;;;;13.50;82.84;101561.91;2072351;28;20045;-70
2022/09/01 00:29:05;;;;;;;1.60;0.77;;;;;;;13.46;83.50;101563.50;2065483;28;20060;-70
2022/09/01 00:30:14;;;;;;;1.20;0.60;;;;;;;13.48;83.73;101555.16;2064569;28;20042;-70
2022/09/01 00:31:19;;;;;;;2.95;1.00;;;;;;;13.45;84.13;101556.50;2065159;28;20038;-70
2022/09/01 00:32:25;;;;;;;3.05;0.93;;;;;;;13.48;84.77;101550.56;2051762;28;20047;-70
2022/09/01 00:33:27;;;;;;;3.08;1.10;;;;;;;13.58;84.66;101550.53;2065359;28;20038;-70
2022/09/01 00:34:32;;;;;;;2.63;0.80;;;;;;;13.57;84.51;101551.63;2065089;28;20049;-70
2022/09/01 00:35:34;;;;;;;5.82;0.82;;;;;;;13.54;84.75;101554.88;2059919;28;20054;-70
2022/09/01 00:36:39;;;;;;;3.75;0.90;;;;;;;13.55;84.65;101544.84;2065143;28;20034;-70
2022/09/01 00:37:44;;;;;;;4.35;0.77;;;;;;;13.60;84.24;101556.47;2059066;28;20383;-70
2022/09/01 00:38:49;;;;;;;1.08;0.60;;;;;;;13.62;84.09;101551.63;2065867;28;20042;-70
2022/09/01 00:39:54;;;;;;;3.40;0.68;;;;;;;13.68;84.08;101546.97;2072273;28;20060;-70
2022/09/01 00:40:56;;;;;;;1.88;0.60;;;;;;;13.74;83.79;101550.47;2065060;28;20039;-70
2022/09/01 00:42:03;;;;;;;3.42;0.77;;;;;;;13.79;83.75;101553.19;2057138;28;20050;-69
2022/09/01 00:43:12;;;;;;;5.40;0.80;;;;;;;13.83;83.64;101546.94;2065636;28;20458;-70
2022/09/01 00:44:22;;;;;;;2.67;0.65;;;;;;;13.85;83.83;101546.66;2072914;28;20054;-70
2022/09/01 00:45:29;;;;;;;1.67;1.25;;;;;;;13.85;83.98;101541.25;2060574;28;20038;-70
2022/09/01 00:46:45;;;;;;;1.73;0.77;;;;;;;13.87;83.88;101539.91;2059405;28;20062;-70
2022/09/01 00:47:53;;;;;;;2.42;0.90;;;;;;;13.88;84.06;101536.13;2056552;28;20038;-70
2022/09/01 00:49:04;;;;;;;6.70;0.80;;;;;;;13.90;84.07;101535.81;2065321;28;20390;-70
2022/09/01 00:50:10;;;;;;;2.45;1.15;;;;;;;13.93;83.97;101540.69;2063581;28;20401;-70
2022/09/01 00:51:16;;;;;;;2.35;0.80;;;;;;;13.90;84.36;101533.13;2061977;28;20065;-69
2022/09/01 00:52:31;;;;;;;3.92;1.00;;;;;;;13.93;84.23;101532.56;2071154;28;20049;-70
2022/09/01 00:53:38;;;;;;;1.95;0.90;;;;;;;13.90;84.04;101525.00;2056786;28;20106;-70
2022/09/01 00:54:55;;;;;;;1.70;0.90;;;;;;;13.91;84.11;101532.06;2043097;29;20047;-70
2022/09/01 00:56:00;;;;;;;1.63;1.05;;;;;;;13.91;84.06;101527.44;2060444;28;20058;-70
2022/09/01 00:57:07;;;;;;;2.08;1.05;;;;;;;13.91;83.96;101529.34;2063764;28;20041;-71
2022/09/01 00:58:14;;;;;;;1.70;0.85;;;;;;;13.87;83.89;101531.81;2072331;28;20041;-69
2022/09/01 00:59:25;;;;;;;3.10;0.98;;;;;;;13.90;83.89;101536.66;2063787;28;20517;-69
2022/09/01 01:00:33;;;;;;;4.40;0.98;;;;;;;13.90;83.53;101527.72;2063304;28;20046;-70
2022/09/01 01:01:35;;;;;;;3.10;1.00;;;;;;;13.90;83.60;101528.53;2064636;28;20038;-70
2022/09/01 01:02:41;;;;;;;1.63;0.90;;;;;;;13.89;83.54;101524.19;2056886;28;20433;-70
2022/09/01 01:03:46;;;;;;;2.65;0.98;;;;;;;13.93;83.43;101529.84;2064880;28;20532;-70
2022/09/01 01:04:51;;;;;;;3.47;1.23;;;;;;;13.90;83.97;101530.41;2073076;28;20042;-70
2022/09/01 01:06:00;;;;;;;1.23;0.85;;;;;;;13.90;83.44;101527.72;2057183;28;20047;-70
2022/09/01 01:07:07;;;;;;;2.58;1.25;;;;;;;13.90;83.59;101525.00;2041081;28;20495;-70
2022/09/01 01:08:10;;;;;;;3.15;1.05;;;;;;;13.86;83.60;101526.66;2047422;28;20055;-70
2022/09/01 01:09:12;;;;;;;5.43;0.93;;;;;;;13.84;83.73;101526.09;2049429;28;20035;-70
2022/09/01 01:10:22;;;;;;;1.83;0.90;;;;;;;13.80;84.12;101533.16;2045985;29;20044;-70
2022/09/01 01:11:27;;;;;;;3.35;1.00;;;;;;;13.82;84.08;101526.41;2045958;28;20039;-70
2022/09/01 01:12:36;;;;;;;1.60;1.00;;;;;;;13.83;83.80;101519.91;2065591;28;20037;-70
2022/09/01 01:13:53;;;;;;;1.85;1.15;;;;;;;13.85;83.84;101525.03;2064845;28;20049;-70
2022/09/01 01:14:59;;;;;;;3.20;0.90;;;;;;;13.85;83.40;101533.16;2059645;28;20039;-70
2022/09/01 01:16:07;;;;;;;1.13;0.90;;;;;;;13.78;83.60;101528.06;2056464;28;20043;-70
2022/09/01 01:17:09;;;;;;;2.25;0.82;;;;;;;13.80;83.67;101527.75;2050780;28;20035;-70
2022/09/01 01:18:14;;;;;;;2.22;1.20;;;;;;;13.83;83.44;101519.09;2048748;28;20091;-69
2022/09/01 01:23:02;;;;;;;3.88;0.90;;;;;;;13.84;83.26;101526.94;2064726;28;20054;-70
2022/09/01 01:24:27;;;;;;;1.20;0.63;;;;;;;13.77;83.43;101531.81;2069500;28;20474;-69
2022/09/01 01:25:29;;;;;;;1.25;0.73;;;;;;;13.74;83.42;101523.44;2061920;28;20051;-69
2022/09/01 01:26:34;;;;;;;1.33;0.70;;;;;;;13.74;83.59;101531.56;2063714;28;20057;-69
2022/09/01 01:27:44;;;;;;;6.32;1.13;;;;;;;13.76;83.39;101524.00;2072213;28;20033;-70
2022/09/01 01:28:52;;;;;;;1.35;0.85;;;;;;;13.69;83.17;101524.28;2064769;28;20034;-70
2022/09/01 01:29:56;;;;;;;0.80;0.60;;;;;;;13.75;83.29;101517.78;2064666;28;20034;-70
2022/09/01 01:31:21;;;;;;;2.90;0.70;;;;;;;13.76;83.15;101518.59;2069268;28;20050;-70
2022/09/01 01:32:28;;;;;;;1.35;0.80;;;;;;;13.78;82.99;101524.53;2062975;28;20041;-70
2022/09/01 01:33:43;;;;;;;2.55;0.80;;;;;;;13.78;83.13;101522.66;2072814;28;20065;-70
2022/09/01 01:34:49;;;;;;;1.75;0.90;;;;;;;13.76;83.41;101524.00;2062797;28;20485;-70
2022/09/01 01:35:52;;;;;;;5.32;0.70;;;;;;;13.74;83.11;101523.44;2057684;28;20038;-70
2022/09/01 01:37:00;;;;;;;2.42;0.80;;;;;;;13.73;83.29;101513.75;2064492;28;20852;-70
2022/09/01 01:38:11;;;;;;;1.40;0.57;;;;;;;13.66;83.22;101522.94;2055574;28;20054;-70
2022/09/01 01:39:17;;;;;;;2.72;0.73;;;;;;;13.68;83.13;101523.50;2057712;28;20049;-70
2022/09/01 01:40:24;;;;;;;2.08;0.70;;;;;;;13.68;83.00;101528.91;2056610;28;20039;-70
2022/09/01 01:41:28;;;;;;;2.28;0.60;;;;;;;13.58;83.13;101523.50;2058386;28;20051;-70
2022/09/01 01:42:39;;;;;;;0.88;0.63;;;;;;;13.59;83.33;101527.84;2071068;28;20053;-70
2022/09/01 01:43:47;;;;;;;5.47;0.98;;;;;;;13.57;83.49;101527.28;2064860;28;20034;-70
2022/09/01 01:44:51;;;;;;;1.67;0.70;;;;;;;13.51;83.30;101533.78;2056403;28;20042;-70
2022/09/01 01:46:01;;;;;;;1.40;0.90;;;;;;;13.51;83.83;101522.19;2056084;28;20051;-70
2022/09/01 01:47:11;;;;;;;0.65;0.60;;;;;;;13.49;83.98;101527.84;2048544;28;20526;-70
2022/09/01 01:48:17;;;;;;;0.82;0.60;;;;;;;13.51;83.64;101536.50;2066451;28;20072;-70
2022/09/01 01:49:24;;;;;;;3.22;0.60;;;;;;;13.56;83.44;101531.09;2070639;28;20044;-70
2022/09/01 01:50:32;;;;;;;2.65;0.60;;;;;;;13.56;83.33;101531.09;2065153;28;20041;-70
2022/09/01 01:51:36;;;;;;;0.68;0.45;;;;;;;13.54;83.17;101527.84;2080298;28;20056;-70
2022/09/01 01:52:48;;;;;;;1.02;0.47;;;;;;;13.52;83.16;101532.69;2088987;28;20566;-70
2022/09/01 01:53:51;;;;;;;1.02;0.40;;;;;;;13.51;83.05;101527.59;2081106;28;20048;-69
2022/09/01 01:54:57;;;;;;;1.13;0.47;;;;;;;13.52;83.03;101531.91;2072882;28;20052;-70
2022/09/01 01:56:05;;;;;;;0.73;0.52;;;;;;;13.46;83.16;101531.09;2072906;28;20053;-70
2022/09/01 01:57:10;;;;;;;0.90;0.60;;;;;;;13.46;83.03;101531.09;2064110;28;20045;-70
2022/09/01 01:58:18;;;;;;;1.10;0.70;;;;;;;13.35;83.35;101524.91;2056726;28;20057;-70
2022/09/01 01:59:25;;;;;;;0.35;0.35;;;;;;;13.40;83.42;101527.63;2072655;28;20046;-70
2022/09/01 02:00:33;;;;;;;2.20;0.60;;;;;;;13.43;83.19;101526.28;2081003;28;20041;-70
2022/09/01 02:01:38;;;;;;;1.35;0.98;;;;;;;13.45;83.15;101524.88;2079777;28;20073;-70
2022/09/01 02:02:41;;;;;;;1.10;0.63;;;;;;;13.40;83.16;101526.81;2076466;28;20038;-70
2022/09/01 02:03:43;;;;;;;1.27;0.50;;;;;;;13.40;83.21;101526.81;2072429;28;20044;-70
2022/09/01 02:04:50;;;;;;;1.13;0.70;;;;;;;13.38;83.22;101529.78;2064999;28;20030;-71
2022/09/01 02:05:54;;;;;;;2.85;0.60;;;;;;;13.41;83.26;101525.72;2063694;28;20027;-71
2022/09/01 02:07:01;;;;;;;1.98;0.60;;;;;;;13.44;83.29;101517.88;2081655;28;20037;-70
2022/09/01 02:08:06;;;;;;;2.00;0.63;;;;;;;13.44;83.60;101523.28;2070882;28;20042;-71
2022/09/01 02:09:13;;;;;;;1.05;0.60;;;;;;;13.46;84.00;101523.00;2063974;28;20062;-71
2022/09/01 02:10:19;;;;;;;0.80;0.68;;;;;;;13.49;83.85;101516.22;2071393;28;20045;-70
2022/09/01 02:11:27;;;;;;;1.27;0.60;;;;;;;13.52;83.65;101518.38;2064055;28;20070;-70
2022/09/01 02:12:36;;;;;;;2.30;0.68;;;;;;;13.55;83.55;101517.84;2072376;28;20513;-70
2022/09/01 02:13:45;;;;;;;2.45;0.65;;;;;;;13.57;83.37;101513.78;2072337;28;20041;-71
2022/09/01 02:14:54;;;;;;;0.90;0.63;;;;;;;13.55;82.98;101513.25;2064384;28;20030;-70
2022/09/01 02:16:01;;;;;;;2.13;0.75;;;;;;;13.58;82.86;101511.88;2073436;28;20129;-69
2022/09/01 02:17:08;;;;;;;1.77;0.70;;;;;;;13.60;83.05;101515.13;2079102;28;20424;-71
2022/09/01 02:18:18;;;;;;;1.73;0.47;;;;;;;13.55;83.09;101507.84;2088315;28;20055;-70
2022/09/01 02:19:23;;;;;;;1.35;0.70;;;;;;;13.59;83.22;101506.22;2079568;28;20037;-70
2022/09/01 02:20:28;;;;;;;1.63;0.50;;;;;;;13.58;83.24;101507.28;2073385;28;20041;-70
2022/09/01 02:21:34;;;;;;;1.38;0.50;;;;;;;13.61;83.04;101500.53;2080676;28;20048;-70
2022/09/01 02:22:40;;;;;;;;;;;;;;;13.58;83.12;101503.78;2078628;28;20044;-70
2022/09/01 02:24:00;;;;;;;0.40;0.40;;;;;;;13.53;83.33;101501.13;2062882;28;20508;-70
2022/09/01 02:25:02;;;;;;;1.48;0.50;;;;;;;13.56;83.39;101503.28;2080500;28;20040;-70
2022/09/01 02:26:10;;;;;;;0.95;0.50;;;;;;;13.59;83.18;101495.41;2083586;28;20068;-70
2022/09/01 02:27:14;;;;;;;2.15;0.70;;;;;;;13.59;83.01;101498.13;2072033;28;20037;-71
2022/09/01 02:28:21;;;;;;;0.85;0.60;;;;;;;13.60;83.16;101491.63;2058594;28;20038;-70
2022/09/01 02:29:28;;;;;;;0.93;0.30;;;;;;;13.61;82.94;101498.63;2056777;28;20438;-71
2022/09/01 02:30:33;;;;;;;1.15;0.50;;;;;;;13.63;83.24;101498.38;2063868;28;20050;-69
2022/09/01 02:31:40;;;;;;;3.72;0.45;;;;;;;13.65;83.11;101502.41;2072123;28;20049;-72
2022/09/01 02:32:43;;;;;;;2.33;0.50;;;;;;;13.67;83.44;101499.44;2078162;28;20037;-69
2022/09/01 02:33:48;;;;;;;1.27;0.40;;;;;;;13.64;83.07;101499.97;2079752;28;20409;-71
2022/09/01 02:34:52;;;;;;;1.83;0.40;;;;;;;13.63;82.95;101503.78;2072856;28;20053;-71
2022/09/01 02:35:59;;;;;;;0.98;0.43;;;;;;;13.66;83.17;101504.03;2080393;28;20052;-71
2022/09/01 02:37:04;;;;;;;1.00;0.63;;;;;;;13.63;83.57;101499.19;2088507;28;20060;-71
2022/09/01 02:38:09;;;;;;;2.47;0.50;;;;;;;13.67;83.69;101502.94;2072045;28;20053;-69
2022/09/01 02:39:11;;;;;;;1.00;0.40;;;;;;;13.67;83.66;101505.63;2055498;28;20510;-71
2022/09/01 02:40:15;;;;;;;0.63;0.50;;;;;;;13.69;83.41;101502.69;2072564;28;20053;-70
2022/09/01 02:41:23;;;;;;;2.78;0.50;;;;;;;13.66;83.67;101504.03;2072208;28;20054;-70
2022/09/01 02:42:29;;;;;;;0.57;0.50;;;;;;;13.67;83.68;101505.63;2072618;28;20910;-70
2022/09/01 02:43:37;;;;;;;0.43;0.40;;;;;;;13.66;83.67;101511.34;2072250;28;20056;-70
2022/09/01 02:44:42;;;;;;;0.70;0.45;;;;;;;13.67;83.47;101515.66;2064012;28;20077;-70
2022/09/01 02:45:45;;;;;;;0.70;0.60;;;;;;;13.65;83.83;101502.41;2056631;28;20035;-70
2022/09/01 02:46:52;;;;;;;1.73;0.52;;;;;;;13.63;83.83;101504.59;2080465;28;20049;-70
2022/09/01 02:47:59;;;;;;;0.45;0.40;;;;;;;13.67;83.73;101505.63;2081557;28;20049;-70
2022/09/01 02:49:07;;;;;;;0.43;0.40;;;;;;;13.70;83.77;101506.19;2079718;28;20049;-69
2022/09/01 02:50:15;;;;;;;0.95;0.50;;;;;;;13.71;83.60;101508.59;2080342;28;20056;-70
2022/09/01 02:51:21;;;;;;;0.90;0.60;;;;;;;13.72;83.54;101501.31;2073831;28;20052;-69
2022/09/01 02:52:28;;;;;;;2.15;0.50;;;;;;;13.71;83.31;101505.88;2060374;28;20572;-70
2022/09/01 02:53:38;;;;;;;0.45;0.32;;;;;;;13.70;83.45;101503.47;2059692;28;20042;-70
2022/09/01 02:54:44;;;;;;;1.38;0.47;;;;;;;13.68;83.33;101501.88;2062533;28;20476;-70
2022/09/01 02:55:50;;;;;;;0.80;0.50;;;;;;;13.64;83.63;101508.88;2056660;28;20111;-70
2022/09/01 02:56:53;;;;;;;1.75;0.40;;;;;;;13.66;83.66;101503.22;2060906;28;20037;-70
2022/09/01 02:57:59;;;;;;;1.02;0.50;;;;;;;13.67;83.50;101502.94;2049294;28;20039;-70
2022/09/01 02:59:02;;;;;;;0.85;0.50;;;;;;;13.64;83.46;101506.19;2063870;28;20050;-70
2022/09/01 03:00:21;;;;;;;1.35;0.50;;;;;;;13.65;83.29;101518.63;2055246;28;20042;-70
2022/09/01 03:01:30;;;;;;;0.60;0.60;;;;;;;13.65;83.32;101502.41;2042162;29;20415;-71
2022/09/01 03:02:36;;;;;;;1.67;0.40;;;;;;;13.66;83.72;101505.94;2058368;28;20051;-70
2022/09/01 03:03:44;;;;;;;2.45;0.50;;;;;;;13.66;83.33;101501.31;2055239;28;20034;-70
2022/09/01 03:04:49;;;;;;;1.80;0.60;;;;;;;13.66;83.43;101495.91;2057614;28;20046;-70
2022/09/01 03:05:54;;;;;;;1.10;0.50;;;;;;;13.63;83.44;101504.59;2061849;28;20401;-70
2022/09/01 03:06:58;;;;;;;0.65;0.50;;;;;;;13.66;83.13;101504.03;2048160;28;20055;-70
2022/09/01 03:08:06;;;;;;;0.50;0.40;;;;;;;13.69;83.31;101497.28;2056640;28;20609;-71
2022/09/01 03:09:11;;;;;;;0.98;0.40;;;;;;;13.71;83.75;101494.28;2061605;28;20524;-70
2022/09/01 03:10:18;;;;;;;3.03;0.63;;;;;;;13.74;83.68;101494.53;2072085;28;20065;-71
2022/09/01 03:11:23;;;;;;;0.40;0.40;;;;;;;13.78;84.08;101501.03;2070657;28;20888;-71
2022/09/01 03:12:29;;;;;;;0.50;0.40;;;;;;;13.77;83.96;101503.97;2056152;28;20051;-71
2022/09/01 03:13:33;;;;;;;1.20;0.50;;;;;;;13.74;83.50;101499.13;2056287;28;20043;-72
2022/09/01 03:14:36;;;;;;;2.03;0.50;;;;;;;13.74;83.73;101510.75;2048384;28;20529;-71
2022/09/01 03:15:43;;;;;;;2.55;1.02;;;;;;;13.71;83.73;101505.09;2057174;28;20061;-71
2022/09/01 03:16:48;;;;;;;0.70;0.50;;;;;;;13.76;83.58;101507.78;2063798;28;20561;-71
2022/09/01 03:17:51;;;;;;;3.42;0.40;;;;;;;13.76;83.56;101502.38;2055646;28;20050;-69
2022/09/01 03:18:55;;;;;;;0.75;0.40;;;;;;;13.74;83.26;101501.84;2040119;29;20062;-70
2022/09/01 03:19:58;;;;;;;1.25;0.60;;;;;;;13.76;83.36;101499.66;2040806;28;20416;-69
2022/09/01 03:21:14;;;;;;;0.60;0.50;;;;;;;13.74;83.65;101504.53;2040585;29;20044;-69
2022/09/01 03:22:21;;;;;;;0.75;0.47;;;;;;;13.72;83.82;101499.41;2050258;28;20525;-70
2022/09/01 03:23:26;;;;;;;2.03;0.50;;;;;;;13.74;83.57;101504.53;2064097;28;20053;-70
2022/09/01 03:24:33;;;;;;;0.93;0.45;;;;;;;13.73;83.75;101502.94;2053002;28;20042;-70
2022/09/01 03:25:38;;;;;;;0.47;0.32;;;;;;;13.74;83.73;101504.53;2049181;28;20045;-70
2022/09/01 03:26:54;;;;;;;1.45;0.68;;;;;;;13.74;83.45;101504.53;2064572;28;20875;-70
2022/09/01 03:28:02;;;;;;;;;;;;;;;13.74;83.88;101507.25;2062078;28;20045;-70
2022/09/01 03:29:07;;;;;;;0.65;0.50;;;;;;;13.71;83.74;101507.78;2066531;28;19921;-69
2022/09/01 03:30:14;;;;;;;2.47;0.73;;;;;;;13.71;83.57;101505.09;2063486;28;20418;-70
2022/09/01 03:31:20;;;;;;;1.08;0.60;;;;;;;13.74;83.56;101502.63;2053285;28;20062;-71
2022/09/01 03:32:26;;;;;;;3.33;0.50;;;;;;;13.73;83.59;101506.44;2063992;28;20053;-71
2022/09/01 03:33:28;;;;;;;1.75;0.50;;;;;;;13.76;83.29;101507.78;2055501;28;20470;-72
2022/09/01 03:34:35;;;;;;;1.73;0.60;;;;;;;13.74;83.46;101505.34;2063758;28;20062;-72
2022/09/01 03:35:43;;;;;;;0.57;0.50;;;;;;;13.68;83.45;101506.44;2055839;28;20042;-72
2022/09/01 03:36:49;;;;;;;0.82;0.60;;;;;;;13.65;83.54;101502.41;2057080;28;20041;-72
2022/09/01 03:37:58;;;;;;;3.20;0.70;;;;;;;13.66;83.39;101504.03;2056731;28;20117;-72
2022/09/01 03:39:00;;;;;;;1.48;0.57;;;;;;;13.67;83.78;101502.94;2054169;28;20043;-71
2022/09/01 03:40:10;;;;;;;0.63;0.57;;;;;;;13.62;83.97;101502.97;2064306;28;20066;-70
2022/09/01 03:41:20;;;;;;;0.60;0.50;;;;;;;13.67;83.56;101505.63;2069866;28;20057;-70
2022/09/01 03:42:28;;;;;;;1.33;0.60;;;;;;;13.71;83.62;101497.78;2069349;28;20041;-71
2022/09/01 03:43:33;;;;;;;2.88;0.60;;;;;;;13.68;83.45;101493.75;2063842;28;20038;-70
2022/09/01 03:44:38;;;;;;;1.17;0.40;;;;;;;13.66;83.69;101504.03;2048235;28;20039;-71
2022/09/01 03:45:42;;;;;;;6.70;0.63;;;;;;;13.66;83.74;101500.53;2047507;28;20139;-71
2022/09/01 03:46:46;;;;;;;0.80;0.43;;;;;;;13.68;84.00;101501.88;2046381;29;20393;-71
2022/09/01 03:47:48;;;;;;;3.30;0.60;;;;;;;13.61;84.15;101505.94;2048069;28;20561;-70
2022/09/01 03:48:57;;;;;;;0.98;0.40;;;;;;;13.66;84.29;101498.63;2047911;28;20110;-70
2022/09/01 03:49:59;;;;;;;1.35;1.08;;;;;;;13.71;84.20;101505.09;2064794;28;20034;-71
2022/09/01 03:51:02;;;;;;;0.57;0.57;;;;;;;13.66;84.39;101504.03;2070114;28;20049;-71
2022/09/01 03:52:10;;;;;;;0.75;0.50;;;;;;;13.69;84.48;101497.28;2072074;28;20045;-71
2022/09/01 03:53:21;;;;;;;1.55;0.45;;;;;;;13.70;84.60;101500.78;2086065;28;20492;-71
2022/09/01 03:54:31;;;;;;;0.60;0.60;;;;;;;13.74;84.54;101496.44;2075629;28;20678;-71
2022/09/01 03:55:44;;;;;;;3.53;0.57;;;;;;;13.75;84.61;101500.78;2059219;28;20046;-71
2022/09/01 03:56:46;;;;;;;1.55;0.57;;;;;;;13.77;84.55;101501.28;2059597;28;20050;-70
2022/09/01 03:57:56;;;;;;;1.73;0.80;;;;;;;13.79;84.45;101499.94;2058001;28;20035;-70
2022/09/01 03:58:59;;;;;;;1.10;0.50;;;;;;;13.76;84.24;101500.47;2066891;28;20156;-70
2022/09/01 04:00:19;;;;;;;1.50;0.60;;;;;;;13.77;84.24;101501.28;2081685;28;20080;-70
2022/09/01 04:01:26;;;;;;;1.75;0.52;;;;;;;13.76;84.42;101496.97;2069115;28;20158;-70
2022/09/01 04:02:29;;;;;;;1.75;0.60;;;;;;;13.78;84.27;101497.50;2065897;28;20395;-71
2022/09/01 04:03:35;;;;;;;1.13;0.60;;;;;;;13.78;84.43;101495.63;2064901;28;20041;-70
2022/09/01 04:04:41;;;;;;;1.95;0.55;;;;;;;13.76;84.64;101500.47;2074345;28;20176;-69
2022/09/01 04:05:46;;;;;;;0.70;0.60;;;;;;;13.78;84.63;101500.22;2080143;28;20547;-69
2022/09/01 04:06:51;;;;;;;0.60;0.50;;;;;;;13.62;84.69;101502.97;2082245;28;20048;-70
2022/09/01 04:07:59;;;;;;;1.70;0.60;;;;;;;13.64;84.56;101498.09;2080948;28;20041;-70
2022/09/01 04:09:02;;;;;;;0.98;0.50;;;;;;;13.73;84.25;101500.22;2072373;28;20481;-70
2022/09/01 04:10:10;;;;;;;0.70;0.50;;;;;;;13.72;84.69;101496.72;2080527;28;20481;-70
2022/09/01 04:11:22;;;;;;;1.40;0.55;;;;;;;13.67;84.49;101500.22;2079872;28;20056;-68
2022/09/01 04:12:28;;;;;;;1.67;0.60;;;;;;;13.68;84.58;101501.88;2069035;28;20050;-69
2022/09/01 04:13:35;;;;;;;0.50;0.50;;;;;;;13.70;84.75;101493.47;2085984;28;20037;-68
2022/09/01 04:14:39;;;;;;;0.50;0.47;;;;;;;13.70;84.94;101495.38;2072892;28;20053;-68
2022/09/01 04:15:44;;;;;;;0.98;0.70;;;;;;;13.69;84.67;101502.69;2062441;28;20038;-68
2022/09/01 04:18:18;;;;;;;4.88;0.68;;;;;;;13.72;84.37;101496.72;2082871;28;20040;-67
2022/09/01 04:19:25;;;;;;;2.67;0.60;;;;;;;13.65;84.79;101497.03;2092561;28;20064;-68
2022/09/01 04:20:27;;;;;;;3.10;0.50;;;;;;;13.72;84.30;101496.72;2072294;28;20034;-68
2022/09/01 04:21:32;;;;;;;0.93;0.65;;;;;;;13.71;84.41;101491.56;2059016;28;20077;-68
2022/09/01 04:22:42;;;;;;;1.52;0.70;;;;;;;13.70;84.46;101492.66;2070466;28;20038;-68
2022/09/01 04:23:45;;;;;;;0.98;0.60;;;;;;;13.83;83.80;101502.88;2085163;28;20464;-67
2022/09/01 04:24:47;;;;;;;2.00;0.50;;;;;;;13.80;84.06;101498.03;2071045;28;20088;-68
2022/09/01 04:25:59;;;;;;;0.60;0.50;;;;;;;13.79;83.72;101501.81;2066004;28;20042;-68
2022/09/01 04:27:02;;;;;;;0.98;0.60;;;;;;;13.79;83.61;101499.94;2081882;28;20048;-68
2022/09/01 04:28:21;;;;;;;2.35;0.60;;;;;;;13.75;83.92;101501.56;2080312;28;20049;-68
2022/09/01 04:29:33;;;;;;;1.08;0.60;;;;;;;13.84;83.64;101499.06;2060794;28;20046;-86
2022/09/01 04:30:57;;;;;;;2.20;0.80;;;;;;;13.91;83.32;101499.63;2065972;28;20045;-79
2022/09/01 04:32:11;;;;;;;1.67;0.60;;;;;;;14.05;83.10;101499.81;2068637;28;20042;-77
2022/09/01 04:33:17;;;;;;;4.10;1.00;;;;;;;14.24;82.72;101500.78;2070343;28;20037;-75
2022/09/01 04:34:22;;;;;;;1.02;0.60;;;;;;;14.48;82.19;101503.59;2072946;28;20532;-74
2022/09/01 04:35:31;;;;;;;1.70;0.60;;;;;;;14.70;81.36;101502.41;2065200;28;20038;-79
2022/09/01 04:36:40;;;;;;;1.98;0.50;;;;;;;14.63;81.16;101504.59;2074072;28;20052;-70
2022/09/01 04:37:46;;;;;;;1.27;0.60;;;;;;;14.66;80.90;101504.03;2080161;28;20036;-77
2022/09/01 04:38:54;;;;;;;0.60;0.60;;;;;;;14.70;80.41;101507.81;2080404;28;20045;-69
2022/09/01 04:39:58;;;;;;;1.23;0.70;;;;;;;14.74;80.18;101500.72;2084838;28;20432;-80
2022/09/01 04:41:08;;;;;;;1.90;0.60;;;;;;;14.70;80.13;101510.50;2072559;28;20100;-77
2022/09/01 04:42:17;;;;;;;1.08;0.60;;;;;;;14.80;79.75;101505.00;2073442;28;20050;-80
2022/09/01 04:43:25;;;;;;;2.67;0.65;;;;;;;15.15;78.71;101500.34;2076397;28;20465;-76
2022/09/01 04:44:32;;;;;;;1.20;0.60;;;;;;;15.14;78.57;101498.75;2080923;28;20430;-76
2022/09/01 04:45:36;;;;;;;0.77;0.50;;;;;;;14.95;78.87;101495.94;2072319;28;20745;-75
2022/09/01 04:46:45;;;;;;;0.85;0.50;;;;;;;14.75;78.83;101503.16;2058908;28;20050;-76
2022/09/01 04:47:54;;;;;;;3.17;0.60;;;;;;;14.66;79.23;101498.63;2074488;28;20046;-72
2022/09/01 04:49:02;;;;;;;1.13;0.60;;;;;;;14.56;79.12;101494.91;2086575;28;20056;-73
2022/09/01 04:50:12;;;;;;;2.35;0.63;;;;;;;14.54;79.11;101502.50;2070051;28;20136;-73
2022/09/01 04:51:16;;;;;;;1.23;0.50;;;;;;;14.76;78.82;101503.97;2067126;28;20058;-74
2022/09/01 04:52:30;;;;;;;1.15;0.93;;;;;;;14.77;78.45;101502.88;2077319;28;20052;-73
2022/09/01 04:53:35;;;;;;;1.30;0.63;;;;;;;14.79;78.48;101503.41;2073017;28;20045;-74
2022/09/01 04:54:43;;;;;;;2.40;0.70;;;;;;;14.84;78.52;101500.63;2060656;28;20054;-74
2022/09/01 04:55:47;;;;;;;0.55;0.43;;;;;;;14.92;78.35;101501.94;2064795;28;20050;-74
2022/09/01 04:56:55;;;;;;;1.85;0.60;;;;;;;15.26;77.77;101510.00;2068693;28;20061;-75
2022/09/01 04:58:03;;;;;;;1.75;0.60;;;;;;;15.35;77.51;101510.97;2070682;28;20049;-75
2022/09/01 04:59:10;;;;;;;1.10;0.60;;;;;;;15.26;77.61;101507.31;2079357;28;20140;-76
2022/09/01 05:00:21;;;;;;;2.95;0.70;;;;;;;15.23;77.49;101510.59;2076090;28;20052;-73
2022/09/01 05:01:28;;;;;;;0.85;0.70;;;;;;;15.69;77.06;101510.91;2069007;28;20045;-75
2022/09/01 05:02:32;;;;;;;1.45;0.57;;;;;;;15.96;76.23;101510.31;2063845;28;20057;-71
2022/09/01 05:03:37;;;;;;;1.08;0.80;;;;;;;16.05;76.24;101512.38;2070204;28;20133;-68
2022/09/01 05:04:53;;;;;;;0.50;0.50;;;;;;;16.54;75.41;101513.81;2063176;28;20054;-73
2022/09/01 05:05:57;;;;;;;4.68;0.60;;;;;;;16.88;74.13;101503.53;2054696;28;20063;-72
2022/09/01 05:07:03;;;;;;;1.15;0.50;;;;;;;17.32;73.42;101502.19;2048241;28;20055;-72
2022/09/01 05:08:19;;;;;;;0.80;0.70;;;;;;;17.45;72.73;101508.75;2057135;28;20062;-76
2022/09/01 05:09:38;;;;;;;2.33;0.73;;;;;;;17.49;72.39;101514.38;2055349;28;20051;-73
2022/09/01 05:11:04;;;;;;;1.30;0.70;;;;;;;17.01;71.84;101507.38;2057411;28;20395;-73
2022/09/01 05:12:15;;;;;;;3.53;1.27;;;;;;;16.79;71.97;101509.94;2055430;28;20047;-71
2022/09/01 05:13:21;;;;;;;1.92;0.70;;;;;;;16.59;72.47;101516.47;2064806;28;20042;-69
2022/09/01 05:14:26;;;;;;;3.53;0.60;;;;;;;16.63;72.29;101512.84;2069677;28;20109;-70
2022/09/01 05:15:30;;;;;;;4.32;1.20;;;;;;;16.64;72.17;101513.66;2063777;28;20046;-69
2022/09/01 05:16:34;;;;;;;2.33;0.70;;;;;;;16.61;72.08;101525.09;2069529;28;20061;-66
2022/09/01 05:17:39;;;;;;;0.93;0.50;;;;;;;16.56;71.75;101517.88;2053983;28;20086;-71